createdAt,value
2024-05-09T00:03:03.110Z,1.90
2024-05-09T00:08:07.054Z,1.72
2024-05-09T00:13:11.314Z,1.67
2024-05-09T00:18:14.670Z,1.57
2024-05-09T00:23:36.245Z,1.67
2024-05-09T00:28:39.784Z,1.77
2024-05-09T00:33:43.279Z,1.70
2024-05-09T00:38:47.952Z,1.68
2024-05-09T00:43:51.238Z,1.85
2024-05-09T00:48:54.647Z,1.69
2024-05-09T00:53:58.263Z,1.55
2024-05-09T00:59:01.547Z,1.51
2024-05-09T01:04:05.149Z,1.40
2024-05-09T01:09:08.444Z,1.30
2024-05-09T01:14:11.638Z,1.14
2024-05-09T01:19:26.993Z,1.03
2024-05-09T01:24:30.183Z,1.03
2024-05-09T01:29:33.775Z,0.94
2024-05-09T01:34:36.937Z,0.90
2024-05-09T01:39:40.198Z,0.94
2024-05-09T01:44:47.180Z,0.99
2024-05-09T01:49:50.456Z,0.88
2024-05-09T01:54:53.641Z,0.89
2024-05-09T01:59:56.895Z,0.83
2024-05-09T02:05:00.515Z,0.83
2024-05-09T02:10:10.820Z,0.83
2024-05-09T02:15:19.300Z,0.74
2024-05-09T02:20:30.709Z,0.80
2024-05-09T02:25:39.111Z,0.93
2024-05-09T02:30:42.820Z,0.82
2024-05-09T02:35:45.973Z,1.01
2024-05-09T02:40:49.106Z,1.08
2024-05-09T02:45:52.155Z,1.03
2024-05-09T02:50:55.357Z,0.96
2024-05-09T02:55:58.556Z,0.79
2024-05-09T03:01:02.005Z,0.91
2024-05-09T03:06:05.371Z,1.19
2024-05-09T03:11:08.700Z,1.06
2024-05-09T03:16:13.395Z,0.82
2024-05-09T03:21:16.422Z,0.75
2024-05-09T03:26:19.801Z,0.55
2024-05-09T03:31:23.628Z,0.37
2024-05-09T03:36:26.768Z,0.29
2024-05-09T03:41:30.157Z,0.41
2024-05-09T03:46:38.190Z,0.54
2024-05-09T03:51:41.425Z,0.77
2024-05-09T03:56:44.619Z,0.66
2024-05-09T04:01:47.859Z,0.96
2024-05-09T04:06:51.268Z,1.17
2024-05-09T04:11:54.536Z,1.01
2024-05-09T04:16:57.810Z,1.00
2024-05-09T04:22:00.814Z,0.90
2024-05-09T04:27:04.102Z,0.59
2024-05-09T04:32:08.256Z,0.07
2024-05-09T04:37:11.577Z,-0.27
2024-05-09T04:42:14.739Z,-0.32
2024-05-09T04:47:17.922Z,-0.29
2024-05-09T04:52:21.177Z,-0.11
2024-05-09T04:57:24.176Z,-0.09
2024-05-09T05:02:27.337Z,0.02
2024-05-09T05:07:30.561Z,0.26
2024-05-09T05:12:51.917Z,0.24
2024-05-09T05:17:55.499Z,0.45
2024-05-09T05:22:58.692Z,0.70
2024-05-09T05:28:01.933Z,1.05
2024-05-09T05:33:07.098Z,1.30
2024-05-09T05:38:11.506Z,1.65
2024-05-09T05:43:19.231Z,1.95
2024-05-09T05:48:28.592Z,1.96
2024-05-09T05:53:31.682Z,1.94
2024-05-09T05:58:34.727Z,1.91
2024-05-09T06:03:38.363Z,2.26
2024-05-09T06:08:41.695Z,2.55
2024-05-09T06:13:44.876Z,2.72
2024-05-09T06:18:48.262Z,2.69
2024-05-09T06:23:51.439Z,2.78
2024-05-09T06:28:54.872Z,2.80
2024-05-09T06:33:58.683Z,3.16
2024-05-09T06:39:01.896Z,3.45
2024-05-09T06:44:05.336Z,3.38
2024-05-09T06:49:09.907Z,3.63
2024-05-09T06:54:13.138Z,4.18
2024-05-09T06:59:16.775Z,4.44
2024-05-09T07:04:20.351Z,4.86
2024-05-09T07:09:23.508Z,5.11
2024-05-09T07:14:26.721Z,5.04
2024-05-09T07:19:30.187Z,5.23
2024-05-09T07:24:33.490Z,5.35
2024-05-09T07:29:38.677Z,5.10
2024-05-09T07:34:42.614Z,4.85
2024-05-09T07:39:45.820Z,5.27
2024-05-09T07:45:29.539Z,5.49
2024-05-09T07:55:37.771Z,4.84
2024-05-09T08:00:41.045Z,4.75
2024-05-09T08:05:44.426Z,4.19
2024-05-09T08:10:47.709Z,3.95
2024-05-09T08:15:52.209Z,3.65
2024-05-09T08:20:55.825Z,4.34
2024-05-09T08:26:00.180Z,5.33
2024-05-09T08:31:06.723Z,5.34
2024-05-09T08:36:10.932Z,5.35
2024-05-09T08:41:17.044Z,4.72
2024-05-09T08:46:20.343Z,4.52
2024-05-09T08:51:23.599Z,4.80
2024-05-09T08:56:28.778Z,5.72
2024-05-09T09:01:34.169Z,5.67
2024-05-09T09:06:40.466Z,6.13
2024-05-09T09:11:43.618Z,6.55
2024-05-09T09:16:46.996Z,6.53
2024-05-09T09:21:50.274Z,6.77
2024-05-09T09:26:53.370Z,7.80
2024-05-09T09:32:04.824Z,7.47
2024-05-09T09:37:11.562Z,6.64
2024-05-09T09:42:18.362Z,6.15
2024-05-09T09:47:23.286Z,6.50
2024-05-09T09:52:27.517Z,7.02
2024-05-09T09:57:33.928Z,6.60
2024-05-09T10:02:37.095Z,6.96
2024-05-09T10:07:52.805Z,7.50
2024-05-09T10:13:09.010Z,7.33
2024-05-09T10:18:13.244Z,7.87
2024-05-09T10:23:28.120Z,7.35
2024-05-09T10:28:33.234Z,7.30
2024-05-09T10:33:40.052Z,6.79
2024-05-09T10:38:45.136Z,7.38
2024-05-09T10:43:49.271Z,7.59
2024-05-09T10:48:52.706Z,7.86
2024-05-09T10:53:58.067Z,7.58
2024-05-09T10:59:04.358Z,7.50
2024-05-09T11:04:08.852Z,7.07
2024-05-09T11:09:12.813Z,6.85
2024-05-09T11:14:17.690Z,6.46
2024-05-09T11:19:21.109Z,6.25
2024-05-09T11:24:24.456Z,6.35
2024-05-09T11:29:45.024Z,4.90
2024-05-09T11:34:48.085Z,4.33
2024-05-09T11:39:51.705Z,4.45
2024-05-09T11:44:54.744Z,4.13
2024-05-09T11:49:58.282Z,3.94
2024-05-09T11:55:03.157Z,4.09
2024-05-09T12:00:09.614Z,4.42
2024-05-09T12:05:15.128Z,4.95
2024-05-09T12:10:22.310Z,5.14
2024-05-09T12:15:29.240Z,4.99
2024-05-09T12:20:38.416Z,4.88
2024-05-09T12:25:43.327Z,5.53
2024-05-09T12:30:46.934Z,5.64
2024-05-09T12:35:51.139Z,5.41
2024-05-09T12:40:55.411Z,5.42
2024-05-09T12:45:58.931Z,5.96
2024-05-09T12:51:02.175Z,6.68
2024-05-09T12:56:07.204Z,6.87
2024-05-09T13:01:12.096Z,5.89
2024-05-09T13:06:15.506Z,5.04
2024-05-09T13:11:18.858Z,4.22
2024-05-09T13:16:40.651Z,3.02
2024-05-09T13:21:44.162Z,2.47
2024-05-09T13:26:47.575Z,2.28
2024-05-09T13:31:51.696Z,1.64
2024-05-09T13:36:55.059Z,0.99
2024-05-09T13:41:58.669Z,0.88
2024-05-09T13:47:02.204Z,0.91
2024-05-09T13:52:05.885Z,1.53
2024-05-09T13:57:09.158Z,2.80
2024-05-09T14:02:12.414Z,4.07
2024-05-09T14:07:16.042Z,4.80
2024-05-09T14:12:19.242Z,5.22
2024-05-09T14:17:22.624Z,5.83
2024-05-09T14:22:25.856Z,5.51
2024-05-09T14:27:30.028Z,6.13
2024-05-09T14:32:33.638Z,5.92
2024-05-09T14:37:39.367Z,5.21
2024-05-09T14:42:43.368Z,5.07
2024-05-09T14:47:46.854Z,4.36
2024-05-09T14:52:50.169Z,3.96
2024-05-09T14:57:53.620Z,3.61
2024-05-09T15:02:57.007Z,3.35
2024-05-09T15:08:00.382Z,2.78
2024-05-09T15:13:04.799Z,2.20
2024-05-09T15:18:11.485Z,1.37
2024-05-09T15:23:14.772Z,1.86
2024-05-09T15:28:18.569Z,2.62
2024-05-09T15:33:21.917Z,3.06
2024-05-09T15:38:26.682Z,3.48
2024-05-09T15:43:30.721Z,3.55
2024-05-09T15:48:34.512Z,4.20
2024-05-09T15:53:37.837Z,4.34
2024-05-09T15:58:40.963Z,4.40
2024-05-09T16:03:44.428Z,4.57
2024-05-09T16:08:47.761Z,3.29
2024-05-09T16:13:51.000Z,2.82
2024-05-09T16:18:54.121Z,2.73
2024-05-09T16:23:57.223Z,2.51
2024-05-09T16:29:00.556Z,2.19
2024-05-09T16:34:04.046Z,2.16
2024-05-09T16:39:07.472Z,2.03
2024-05-09T16:44:11.117Z,1.89
2024-05-09T16:49:14.269Z,1.68
2024-05-09T16:54:17.527Z,1.54
2024-05-09T16:59:22.223Z,1.45
2024-05-09T17:04:25.545Z,1.41
2024-05-09T17:09:28.662Z,1.35
2024-05-09T17:14:50.607Z,1.26
2024-05-09T17:19:54.158Z,1.17
2024-05-09T17:24:57.471Z,1.10
2024-05-09T17:30:01.795Z,1.08
2024-05-09T17:35:07.258Z,1.12
2024-05-09T17:40:16.913Z,1.09
2024-05-09T17:45:21.549Z,1.14
2024-05-09T17:50:31.489Z,1.06
2024-05-09T17:55:39.386Z,1.11
2024-05-09T18:00:43.079Z,1.06
2024-05-09T18:05:46.532Z,1.04
2024-05-09T18:15:53.255Z,0.72
2024-05-09T18:20:56.576Z,0.70
2024-05-09T18:25:59.895Z,0.60
2024-05-09T18:31:03.168Z,0.55
2024-05-09T18:36:06.788Z,0.54
2024-05-09T18:41:09.988Z,0.54
2024-05-09T18:46:13.909Z,0.53
2024-05-09T18:51:17.406Z,0.51
2024-05-09T18:56:20.715Z,0.45
2024-05-09T19:01:23.891Z,0.45
2024-05-09T19:06:27.228Z,0.43
2024-05-09T19:11:31.034Z,0.40
2024-05-09T19:16:35.285Z,0.41
2024-05-09T19:21:42.140Z,0.33
2024-05-09T19:26:45.899Z,0.29
2024-05-09T19:31:49.155Z,0.24
2024-05-09T19:36:52.914Z,0.16
2024-05-09T19:41:56.340Z,0.15
2024-05-09T19:46:59.680Z,0.10
2024-05-09T19:52:02.998Z,0.06
2024-05-09T19:57:06.258Z,0.03
2024-05-09T20:02:09.528Z,0.01
2024-05-09T20:07:13.247Z,-0.02
2024-05-09T20:12:16.478Z,-0.06
2024-05-09T20:17:19.651Z,-0.09
2024-05-09T20:22:22.826Z,-0.17
2024-05-09T20:27:25.922Z,-0.24
2024-05-09T20:32:29.236Z,-0.21
2024-05-09T20:37:32.433Z,-0.20
2024-05-09T20:42:35.579Z,-0.24
2024-05-09T20:47:39.376Z,-0.21
2024-05-09T20:52:42.519Z,-0.28
2024-05-09T20:57:45.715Z,-0.28
2024-05-09T21:02:49.039Z,-0.36
2024-05-09T21:07:52.155Z,-0.35
2024-05-09T21:12:55.231Z,-0.38
2024-05-09T21:17:58.693Z,-0.43
2024-05-09T21:23:02.695Z,-0.45
2024-05-09T21:28:06.411Z,-0.44
2024-05-09T21:33:11.678Z,-0.52
2024-05-09T21:38:34.862Z,-0.55
2024-05-09T21:43:38.539Z,-0.57
2024-05-09T21:48:42.046Z,-0.58
2024-05-09T21:53:45.356Z,-0.60
2024-05-09T21:58:48.697Z,-0.60
2024-05-09T22:03:51.955Z,-0.59
2024-05-09T22:08:55.157Z,-0.73
2024-05-09T22:13:58.146Z,-0.71
2024-05-09T22:19:01.266Z,-0.72
2024-05-09T22:24:04.590Z,-0.71
2024-05-09T22:29:07.877Z,-0.75
2024-05-09T22:34:11.061Z,-0.78
2024-05-09T22:39:14.174Z,-0.73
2024-05-09T22:44:17.222Z,-0.73
2024-05-09T22:49:20.865Z,-0.71
2024-05-09T22:54:23.960Z,-0.74
2024-05-09T22:59:29.517Z,-0.68
2024-05-09T23:04:32.891Z,-0.73
2024-05-09T23:09:36.049Z,-0.72
2024-05-09T23:14:39.394Z,-0.75
2024-05-09T23:19:43.219Z,-0.74
2024-05-09T23:24:47.463Z,-0.78
2024-05-09T23:29:50.515Z,-0.80
2024-05-09T23:34:53.784Z,-0.80
2024-05-09T23:39:57.079Z,-0.79
2024-05-09T23:45:00.123Z,-0.79
2024-05-09T23:50:06.708Z,-0.74
2024-05-09T23:55:11.877Z,-0.71
